Terminal Aerodrome Forecast
Issued by NWS Upton, NY

Home | Current Version | Previous Version | Text Only | Print | Product List | Glossary On
Versions: 1 2 3 4 5 6 7 8 9 10 11 12 13 14 15 16 17 18 19 20 21 22 23 24 25 26 27 28 29 30 31 32 33 34 35 36
341
FTUS41 KOKX 300538
TAFEWR
TAF
KEWR 300538Z 3006/0112 05015G22KT P6SM -RA OVC020
     FM301200 04020G28KT P6SM -RA OVC015
     FM301500 04020G29KT 3SM RA OVC010
     FM301800 04014G21KT 2SM -RA BR OVC007
     FM010300 03012G18KT 2SM -SHRA BR OVC007=

USA.gov is the U.S. government's official web portal to all federal, state and local government web resources and services.